Time;durP1;ratioP1;P1;durP2;ratioP2;P2;SDS_P1;SDS_P2;PMS_P1;PMS_P2;Temp;Humidity;BMP_temperature;BMP_pressure;BME280_temperature;BME280_humidity;BME280_pressure;Samples;Min_cycle;Max_cycle;Signal;HPM_P1;HPM_P2
2021/04/18 17:41:06;;;;;;;;;;;;;;;;;;5038475;27;1992;-60
2021/04/18 17:43:32;;;;;;;;;;;;;;;;;;5039308;27;846;-60
2021/04/18 17:45:58;;;;;;;;;;;;;;;;;;5038440;27;867;-61
2021/04/18 17:48:24;;;;;;;;;;;;;;;;;;5028284;27;1186;-62
2021/04/18 17:50:49;;;;;;;;;;;;;;;;;;5114909;28;1206;-61
2021/04/18 17:53:14;;;;;;;;;;;;;;;;;;5092772;27;1184;-58
2021/04/18 17:55:41;;;;;;;;;;;;;;;;;;5039687;28;869;-58
2021/04/18 17:58:06;;;;;;;;;;;;;;;;;;5032623;28;822;-59
2021/04/18 18:00:32;;;;;;;;;;;;;;;;;;5000093;28;1973;-59
2021/04/18 18:02:58;;;;;;;;;;;;;;;;;;5047088;28;1024;-58
2021/04/18 18:05:23;;;;;;;;;;;;;;;;;;5122685;28;838;-59
2021/04/18 18:07:49;;;;;;;;;;;;;;;;;;5124644;28;850;-59
2021/04/18 18:10:15;;;;;;;;;;;;;;;;;;5123405;28;869;-58
2021/04/18 18:12:40;;;;;;;;;;;;;;;;;;5122824;28;1359;-58
2021/04/18 18:15:07;;;;;;;;;;;;;;;;;;5041427;27;1132;-58
2021/04/18 18:17:33;;;;;;;;;;;;;;;;;;5012417;28;1206;-59
2021/04/18 18:19:58;;;;;;;;;;;;;;;;;;5018558;28;1983;-58
2021/04/18 18:22:23;;;;;;;;;;;;;;;;;;5009400;28;1230;-59
2021/04/18 18:24:50;;;;;;;;;;;;;;;;;;5029642;28;1240;-60
2021/04/18 18:27:16;;;;;;;;;;;;;;;;;;5017057;28;1150;-59
2021/04/18 18:29:41;;;;;;;;;;;;;;;;;;5022813;28;1162;-58
2021/04/18 18:32:07;;;;;;;;;;;;;;;;;;5016336;28;1303;-59
2021/04/18 18:34:36;;;;;;;;;;;;;;;;;;5019028;28;1141;-58
2021/04/18 18:37:03;;;;;;;;;;;;;;;;;;5018841;28;1372;-58
2021/04/18 18:39:29;;;;;;;;;;;;;;;;;;5020141;28;1973;-58
2021/04/18 18:41:54;;;;;;;;;;;;;;;;;;5018444;28;1236;-58
2021/04/18 18:44:19;;;;;;;;;;;;;;;;;;5019648;28;1272;-58
2021/04/18 18:46:45;;;;;;;;;;;;;;;;;;5017061;28;1532;-59
2021/04/18 18:49:11;;;;;;;;;;;;;;;;;;5017924;28;1121;-59
2021/04/18 18:51:39;;;;;;;;;;;;;;;;;;5006845;28;1211;-58
2021/04/18 18:54:05;;;;;;;;;;;;;;;;;;5005196;28;1171;-58
2021/04/18 18:56:30;;;;;;;;;;;;;;;;;;5003475;28;1337;-58
2021/04/18 18:58:56;;;;;;;;;;;;;;;;;;5004381;28;1898;-59
2021/04/18 19:01:22;;;;;;;;;;;;;;;;;;5007447;28;1162;-58
2021/04/18 19:04:01;;;;;;;;;;;;;;;;;;5006650;28;1133;-58
2021/04/18 19:06:27;;;;;;;;;;;;;;;;;;5003219;28;1153;-58
2021/04/18 19:08:53;;;;;;;;;;;;;;;;;;5003332;28;1278;-58
2021/04/18 19:11:19;;;;;;;;;;;;;;;;;;5004245;28;1150;-57
2021/04/18 19:13:44;;;;;;;;;;;;;;;;;;5005421;28;850;-58
2021/04/18 19:16:10;;;;;;;;;;;;;;;;;;5002963;28;1293;-58
2021/04/18 19:18:35;;;;;;;;;;;;;;;;;;5005087;28;1942;-59
2021/04/18 19:21:00;;;;;;;;;;;;;;;;;;5005638;28;830;-58
2021/04/18 19:23:26;;;;;;;;;;;;;;;;;;5033012;28;1142;-58
2021/04/18 19:25:52;;;;;;;;;;;;;;;;;;5047781;28;1147;-60
2021/04/18 19:28:18;;;;;;;;;;;;;;;;;;5049385;28;1050;-60
2021/04/18 19:30:45;;;;;;;;;;;;;;;;;;5108433;28;826;-60
2021/04/18 19:33:11;;;;;;;;;;;;;;;;;;5108735;28;841;-58
2021/04/18 19:35:37;;;;;;;;;;;;;;;;;;5014987;28;893;-58
2021/04/18 19:38:04;;;;;;;;;;;;;;;;;;4993771;28;1213;-58
2021/04/18 19:40:31;;;;;;;;;;;;;;;;;;5024099;28;1894;-59
2021/04/18 19:42:57;;;;;;;;;;;;;;;;;;5013256;28;1182;-58
2021/04/18 19:45:22;;;;;;;;;;;;;;;;;;5041274;28;1401;-59
2021/04/18 19:47:48;;;;;;;;;;;;;;;;;;5028650;28;1573;-58
2021/04/18 19:50:13;;;;;;;;;;;;;;;;;;5011215;28;1211;-59
2021/04/18 19:52:39;;;;;;;;;;;;;;;;;;5004577;28;1315;-58
2021/04/18 19:55:05;;;;;;;;;;;;;;;;;;5004385;28;1150;-58
2021/04/18 19:57:30;;;;;;;;;;;;;;;;;;5004143;28;1134;-60
2021/04/18 19:59:56;;;;;;;;;;;;;;;;;;5003834;28;1987;-59
2021/04/18 20:02:21;;;;;;;;;;;;;;;;;;5017421;28;1461;-60
2021/04/18 20:04:47;;;;;;;;;;;;;;;;;;5020537;28;1039;-59
2021/04/18 20:07:13;;;;;;;;;;;;;;;;;;4993179;28;1047;-60
2021/04/18 20:09:38;;;;;;;;;;;;;;;;;;5004856;28;858;-58
2021/04/18 20:12:04;;;;;;;;;;;;;;;;;;5000635;28;1708;-59
2021/04/18 20:14:29;;;;;;;;;;;;;;;;;;4985091;28;902;-59
2021/04/18 20:16:55;;;;;;;;;;;;;;;;;;4991117;28;886;-58
2021/04/18 20:19:20;;;;;;;;;;;;;;;;;;5004703;28;1898;-59
2021/04/18 20:21:45;;;;;;;;;;;;;;;;;;5003665;28;905;-59
2021/04/18 20:24:12;;;;;;;;;;;;;;;;;;5064082;28;1090;-60
2021/04/18 20:26:38;;;;;;;;;;;;;;;;;;5107927;28;752;-59
2021/04/18 20:29:03;;;;;;;;;;;;;;;;;;5053062;28;929;-58
2021/04/18 20:31:29;;;;;;;;;;;;;;;;;;4984749;28;897;-58
2021/04/18 20:33:54;;;;;;;;;;;;;;;;;;4984496;28;910;-58
2021/04/18 20:36:19;;;;;;;;;;;;;;;;;;4985363;28;800;-58
2021/04/18 20:38:46;;;;;;;;;;;;;;;;;;4983200;28;1911;-58
2021/04/18 20:41:11;;;;;;;;;;;;;;;;;;4983620;28;1203;-59
2021/04/18 20:43:37;;;;;;;;;;;;;;;;;;5003646;28;1755;-60
2021/04/18 20:46:02;;;;;;;;;;;;;;;;;;5007100;28;1727;-60
2021/04/18 20:48:28;;;;;;;;;;;;;;;;;;5007049;28;1766;-57
2021/04/18 20:50:54;;;;;;;;;;;;;;;;;;4998025;28;1050;-57
2021/04/18 20:53:22;;;;;;;;;;;;;;;;;;5017541;28;1660;-56
2021/04/18 20:55:47;;;;;;;;;;;;;;;;;;5022865;28;1719;-57
2021/04/18 20:58:13;;;;;;;;;;;;;;;;;;4999920;28;1775;-57
2021/04/18 21:00:38;;;;;;;;;;;;;;;;;;5015880;28;1964;-57
2021/04/18 21:03:04;;;;;;;;;;;;;;;;;;5042157;28;1053;-59
2021/04/18 21:05:29;;;;;;;;;;;;;;;;;;5061820;28;1021;-59
2021/04/18 21:07:54;;;;;;;;;;;;;;;;;;4988322;28;873;-58
2021/04/18 21:10:20;;;;;;;;;;;;;;;;;;4983259;28;812;-58
2021/04/18 21:12:46;;;;;;;;;;;;;;;;;;4984073;28;881;-58
2021/04/18 21:15:12;;;;;;;;;;;;;;;;;;4984185;28;843;-59
2021/04/18 21:17:38;;;;;;;;;;;;;;;;;;5010142;28;1109;-58
2021/04/18 21:20:04;;;;;;;;;;;;;;;;;;5094171;28;2032;-58
2021/04/18 21:22:30;;;;;;;;;;;;;;;;;;5048598;28;812;-59
2021/04/18 21:24:55;;;;;;;;;;;;;;;;;;4984347;28;815;-58
2021/04/18 21:27:20;;;;;;;;;;;;;;;;;;4984883;28;858;-58
2021/04/18 21:29:46;;;;;;;;;;;;;;;;;;4983579;28;803;-60
2021/04/18 21:32:11;;;;;;;;;;;;;;;;;;4983606;28;838;-59
2021/04/18 21:34:36;;;;;;;;;;;;;;;;;;4983601;28;842;-59
2021/04/18 21:37:02;;;;;;;;;;;;;;;;;;4984313;28;874;-59
2021/04/18 21:39:27;;;;;;;;;;;;;;;;;;4984077;28;1899;-58
2021/04/18 21:41:53;;;;;;;;;;;;;;;;;;4982618;28;1206;-60
2021/04/18 21:44:18;;;;;;;;;;;;;;;;;;4999486;28;957;-59
2021/04/18 21:46:47;;;;;;;;;;;;;;;;;;5011900;28;1789;-58
2021/04/18 21:49:12;;;;;;;;;;;;;;;;;;4996866;28;1484;-56
2021/04/18 21:51:38;;;;;;;;;;;;;;;;;;5020021;28;1289;-58
2021/04/18 21:54:03;;;;;;;;;;;;;;;;;;5106594;28;1134;-59
2021/04/18 21:56:29;;;;;;;;;;;;;;;;;;5106746;28;892;-59
2021/04/18 21:58:54;;;;;;;;;;;;;;;;;;5106132;28;1948;-58
2021/04/18 22:01:20;;;;;;;;;;;;;;;;;;5106543;28;862;-59
2021/04/18 22:03:47;;;;;;;;;;;;;;;;;;5106402;28;886;-58
2021/04/18 22:06:13;;;;;;;;;;;;;;;;;;5090887;28;1084;-59
2021/04/18 22:08:38;;;;;;;;;;;;;;;;;;5003329;28;905;-58
2021/04/18 22:11:03;;;;;;;;;;;;;;;;;;5003490;28;830;-58
2021/04/18 22:13:29;;;;;;;;;;;;;;;;;;5003294;28;815;-58
2021/04/18 22:15:54;;;;;;;;;;;;;;;;;;5002757;28;866;-58
2021/04/18 22:18:20;;;;;;;;;;;;;;;;;;5003824;28;819;-58
2021/04/18 22:20:45;;;;;;;;;;;;;;;;;;5003090;28;1961;-59
2021/04/18 22:23:10;;;;;;;;;;;;;;;;;;5002462;28;922;-58
2021/04/18 22:25:37;;;;;;;;;;;;;;;;;;5003209;28;802;-60
2021/04/18 22:28:02;;;;;;;;;;;;;;;;;;5006389;28;819;-59
2021/04/18 22:30:28;;;;;;;;;;;;;;;;;;5007090;28;835;-59
2021/04/18 22:32:53;;;;;;;;;;;;;;;;;;5006732;28;807;-58
2021/04/18 22:35:18;;;;;;;;;;;;;;;;;;5007341;28;858;-60
2021/04/18 22:37:44;;;;;;;;;;;;;;;;;;5006336;28;835;-58
2021/04/18 22:40:09;;;;;;;;;;;;;;;;;;4998991;28;2430;-60
2021/04/18 22:42:35;;;;;;;;;;;;;;;;;;5002350;28;905;-59
2021/04/18 22:45:00;;;;;;;;;;;;;;;;;;5006657;28;814;-59
2021/04/18 22:47:26;;;;;;;;;;;;;;;;;;5006319;28;939;-59
2021/04/18 22:49:51;;;;;;;;;;;;;;;;;;5006920;28;862;-59
2021/04/18 22:52:17;;;;;;;;;;;;;;;;;;5009417;28;822;-58
2021/04/18 22:54:42;;;;;;;;;;;;;;;;;;5025577;28;1145;-59
2021/04/18 22:57:08;;;;;;;;;;;;;;;;;;5026148;28;834;-58
2021/04/18 22:59:33;;;;;;;;;;;;;;;;;;5024275;28;1902;-58
2021/04/18 23:01:58;;;;;;;;;;;;;;;;;;5025410;28;891;-60
2021/04/18 23:04:24;;;;;;;;;;;;;;;;;;5026458;28;881;-60
2021/04/18 23:06:49;;;;;;;;;;;;;;;;;;5026558;28;862;-60
2021/04/18 23:09:14;;;;;;;;;;;;;;;;;;5025693;28;802;-59
2021/04/18 23:11:40;;;;;;;;;;;;;;;;;;5025680;28;910;-60
2021/04/18 23:14:05;;;;;;;;;;;;;;;;;;5025769;28;936;-59
2021/04/18 23:16:31;;;;;;;;;;;;;;;;;;5025515;28;822;-58
2021/04/18 23:18:56;;;;;;;;;;;;;;;;;;5025341;28;1961;-59
2021/04/18 23:21:22;;;;;;;;;;;;;;;;;;5026471;28;961;-61
2021/04/18 23:23:47;;;;;;;;;;;;;;;;;;5026087;28;846;-59
2021/04/18 23:26:13;;;;;;;;;;;;;;;;;;5025455;28;830;-59
2021/04/18 23:28:38;;;;;;;;;;;;;;;;;;5036952;28;1093;-60
2021/04/18 23:31:03;;;;;;;;;;;;;;;;;;5024924;28;810;-60
2021/04/18 23:33:29;;;;;;;;;;;;;;;;;;5025450;28;807;-61
2021/04/18 23:35:54;;;;;;;;;;;;;;;;;;5025450;28;873;-60
2021/04/18 23:38:20;;;;;;;;;;;;;;;;;;5026233;28;905;-61
2021/04/18 23:40:45;;;;;;;;;;;;;;;;;;5025420;28;1898;-58
2021/04/18 23:43:10;;;;;;;;;;;;;;;;;;5025528;28;830;-57
2021/04/18 23:45:36;;;;;;;;;;;;;;;;;;5025037;28;917;-58
2021/04/18 23:48:02;;;;;;;;;;;;;;;;;;5024702;28;834;-58
2021/04/18 23:50:27;;;;;;;;;;;;;;;;;;5024411;28;872;-59
2021/04/18 23:52:52;;;;;;;;;;;;;;;;;;5046354;28;1160;-58
2021/04/18 23:55:18;;;;;;;;;;;;;;;;;;5109480;28;874;-58
2021/04/18 23:57:43;;;;;;;;;;;;;;;;;;5108843;28;846;-57
